sensor_id;sensor_type;location;lat;lon;timestamp;P1;durP1;ratioP1;P2;durP2;ratioP2
8397;SDS011;4236;54.504;9.588;2024-03-08T00:01:25;26.60;;;23.93;;
8397;SDS011;4236;54.504;9.588;2024-03-08T00:03:53;25.30;;;23.60;;
8397;SDS011;4236;54.504;9.588;2024-03-08T00:06:20;44.03;;;24.37;;
8397;SDS011;4236;54.504;9.588;2024-03-08T00:08:48;25.63;;;23.30;;
8397;SDS011;4236;54.504;9.588;2024-03-08T00:11:17;25.47;;;23.37;;
8397;SDS011;4236;54.504;9.588;2024-03-08T00:13:45;24.60;;;22.13;;
8397;SDS011;4236;54.504;9.588;2024-03-08T00:16:14;25.47;;;23.27;;
8397;SDS011;4236;54.504;9.588;2024-03-08T00:18:42;28.83;;;22.70;;
8397;SDS011;4236;54.504;9.588;2024-03-08T00:21:10;25.13;;;22.83;;
8397;SDS011;4236;54.504;9.588;2024-03-08T00:23:38;23.90;;;22.00;;
8397;SDS011;4236;54.504;9.588;2024-03-08T00:26:06;22.53;;;20.83;;
8397;SDS011;4236;54.504;9.588;2024-03-08T00:28:33;26.63;;;24.23;;
8397;SDS011;4236;54.504;9.588;2024-03-08T00:31:01;24.10;;;21.87;;
8397;SDS011;4236;54.504;9.588;2024-03-08T00:33:31;24.07;;;22.23;;
8397;SDS011;4236;54.504;9.588;2024-03-08T00:35:58;26.50;;;24.23;;
8397;SDS011;4236;54.504;9.588;2024-03-08T00:38:26;25.53;;;23.60;;
8397;SDS011;4236;54.504;9.588;2024-03-08T00:40:54;23.57;;;22.13;;
8397;SDS011;4236;54.504;9.588;2024-03-08T00:43:22;25.77;;;23.27;;
8397;SDS011;4236;54.504;9.588;2024-03-08T00:45:49;24.97;;;22.87;;
8397;SDS011;4236;54.504;9.588;2024-03-08T00:48:17;26.43;;;23.93;;
8397;SDS011;4236;54.504;9.588;2024-03-08T00:50:47;27.20;;;24.90;;
8397;SDS011;4236;54.504;9.588;2024-03-08T00:53:14;26.30;;;24.23;;
8397;SDS011;4236;54.504;9.588;2024-03-08T00:55:43;25.57;;;23.37;;
8397;SDS011;4236;54.504;9.588;2024-03-08T00:58:12;26.00;;;23.73;;
8397;SDS011;4236;54.504;9.588;2024-03-08T01:00:40;24.73;;;23.03;;
8397;SDS011;4236;54.504;9.588;2024-03-08T01:03:08;26.93;;;24.73;;
8397;SDS011;4236;54.504;9.588;2024-03-08T01:05:37;26.87;;;24.33;;
8397;SDS011;4236;54.504;9.588;2024-03-08T01:08:06;24.50;;;22.57;;
8397;SDS011;4236;54.504;9.588;2024-03-08T01:10:35;26.70;;;24.30;;
8397;SDS011;4236;54.504;9.588;2024-03-08T01:13:04;27.73;;;24.97;;
8397;SDS011;4236;54.504;9.588;2024-03-08T01:15:32;26.20;;;24.20;;
8397;SDS011;4236;54.504;9.588;2024-03-08T01:18:00;27.53;;;25.10;;
8397;SDS011;4236;54.504;9.588;2024-03-08T01:20:28;27.43;;;24.80;;
8397;SDS011;4236;54.504;9.588;2024-03-08T01:22:56;27.47;;;25.00;;
8397;SDS011;4236;54.504;9.588;2024-03-08T01:25:25;27.83;;;25.50;;
8397;SDS011;4236;54.504;9.588;2024-03-08T01:27:52;26.83;;;24.90;;
8397;SDS011;4236;54.504;9.588;2024-03-08T01:30:20;25.77;;;23.80;;
8397;SDS011;4236;54.504;9.588;2024-03-08T01:32:48;27.53;;;25.40;;
8397;SDS011;4236;54.504;9.588;2024-03-08T01:35:16;28.07;;;25.70;;
8397;SDS011;4236;54.504;9.588;2024-03-08T01:37:44;28.43;;;26.13;;
8397;SDS011;4236;54.504;9.588;2024-03-08T01:40:12;28.03;;;25.63;;
8397;SDS011;4236;54.504;9.588;2024-03-08T01:42:41;30.37;;;27.67;;
8397;SDS011;4236;54.504;9.588;2024-03-08T01:45:09;28.60;;;26.03;;
8397;SDS011;4236;54.504;9.588;2024-03-08T01:47:37;30.00;;;27.50;;
8397;SDS011;4236;54.504;9.588;2024-03-08T01:50:05;31.00;;;28.60;;
8397;SDS011;4236;54.504;9.588;2024-03-08T01:52:34;30.43;;;27.87;;
8397;SDS011;4236;54.504;9.588;2024-03-08T01:55:03;30.40;;;27.90;;
8397;SDS011;4236;54.504;9.588;2024-03-08T01:57:34;31.27;;;28.63;;
8397;SDS011;4236;54.504;9.588;2024-03-08T02:00:05;30.37;;;27.67;;
8397;SDS011;4236;54.504;9.588;2024-03-08T02:02:37;30.97;;;28.33;;
8397;SDS011;4236;54.504;9.588;2024-03-08T02:05:05;29.87;;;27.17;;
8397;SDS011;4236;54.504;9.588;2024-03-08T02:07:34;30.20;;;27.40;;
8397;SDS011;4236;54.504;9.588;2024-03-08T02:10:02;33.50;;;27.70;;
8397;SDS011;4236;54.504;9.588;2024-03-08T02:12:30;30.23;;;27.70;;
8397;SDS011;4236;54.504;9.588;2024-03-08T02:14:58;30.37;;;27.70;;
8397;SDS011;4236;54.504;9.588;2024-03-08T02:17:27;32.90;;;30.17;;
8397;SDS011;4236;54.504;9.588;2024-03-08T02:19:56;29.47;;;26.70;;
8397;SDS011;4236;54.504;9.588;2024-03-08T02:22:27;27.40;;;25.40;;
8397;SDS011;4236;54.504;9.588;2024-03-08T02:24:55;28.43;;;26.00;;
8397;SDS011;4236;54.504;9.588;2024-03-08T02:27:24;27.83;;;25.50;;
8397;SDS011;4236;54.504;9.588;2024-03-08T02:29:52;31.00;;;27.80;;
8397;SDS011;4236;54.504;9.588;2024-03-08T02:32:22;29.90;;;27.27;;
8397;SDS011;4236;54.504;9.588;2024-03-08T02:34:50;30.10;;;27.53;;
8397;SDS011;4236;54.504;9.588;2024-03-08T02:37:18;29.37;;;26.80;;
8397;SDS011;4236;54.504;9.588;2024-03-08T02:39:47;29.13;;;26.30;;
8397;SDS011;4236;54.504;9.588;2024-03-08T02:42:15;29.27;;;26.60;;
8397;SDS011;4236;54.504;9.588;2024-03-08T02:44:44;30.90;;;27.60;;
8397;SDS011;4236;54.504;9.588;2024-03-08T02:47:11;31.30;;;26.60;;
8397;SDS011;4236;54.504;9.588;2024-03-08T02:49:39;30.07;;;27.37;;
8397;SDS011;4236;54.504;9.588;2024-03-08T02:52:07;32.00;;;29.10;;
8397;SDS011;4236;54.504;9.588;2024-03-08T02:54:35;31.33;;;28.53;;
8397;SDS011;4236;54.504;9.588;2024-03-08T02:57:04;32.13;;;28.83;;
8397;SDS011;4236;54.504;9.588;2024-03-08T02:59:33;31.07;;;28.27;;
8397;SDS011;4236;54.504;9.588;2024-03-08T03:02:01;31.43;;;28.63;;
8397;SDS011;4236;54.504;9.588;2024-03-08T03:04:29;33.20;;;29.93;;
8397;SDS011;4236;54.504;9.588;2024-03-08T03:06:57;32.07;;;29.27;;
8397;SDS011;4236;54.504;9.588;2024-03-08T03:09:25;33.53;;;30.37;;
8397;SDS011;4236;54.504;9.588;2024-03-08T03:11:54;32.57;;;29.37;;
8397;SDS011;4236;54.504;9.588;2024-03-08T03:14:23;33.53;;;30.33;;
8397;SDS011;4236;54.504;9.588;2024-03-08T03:16:53;30.60;;;27.80;;
8397;SDS011;4236;54.504;9.588;2024-03-08T03:19:20;33.30;;;29.93;;
8397;SDS011;4236;54.504;9.588;2024-03-08T03:21:48;31.97;;;29.13;;
8397;SDS011;4236;54.504;9.588;2024-03-08T03:24:17;31.73;;;28.40;;
8397;SDS011;4236;54.504;9.588;2024-03-08T03:26:47;31.90;;;29.00;;
8397;SDS011;4236;54.504;9.588;2024-03-08T03:29:15;31.77;;;28.67;;
8397;SDS011;4236;54.504;9.588;2024-03-08T03:31:45;31.03;;;28.53;;
8397;SDS011;4236;54.504;9.588;2024-03-08T03:34:13;32.20;;;29.30;;
8397;SDS011;4236;54.504;9.588;2024-03-08T03:36:41;32.97;;;29.87;;
8397;SDS011;4236;54.504;9.588;2024-03-08T03:39:11;31.90;;;29.30;;
8397;SDS011;4236;54.504;9.588;2024-03-08T03:41:42;31.23;;;28.80;;
8397;SDS011;4236;54.504;9.588;2024-03-08T03:44:12;31.33;;;28.20;;
8397;SDS011;4236;54.504;9.588;2024-03-08T03:46:41;31.60;;;28.93;;
8397;SDS011;4236;54.504;9.588;2024-03-08T03:49:12;30.87;;;28.23;;
8397;SDS011;4236;54.504;9.588;2024-03-08T03:51:40;30.30;;;27.90;;
8397;SDS011;4236;54.504;9.588;2024-03-08T03:54:08;29.80;;;27.37;;
8397;SDS011;4236;54.504;9.588;2024-03-08T03:56:36;30.17;;;27.33;;
8397;SDS011;4236;54.504;9.588;2024-03-08T03:59:03;30.17;;;27.70;;
8397;SDS011;4236;54.504;9.588;2024-03-08T04:01:32;30.97;;;28.43;;
8397;SDS011;4236;54.504;9.588;2024-03-08T04:04:04;32.00;;;28.53;;
8397;SDS011;4236;54.504;9.588;2024-03-08T04:06:33;31.30;;;28.67;;
8397;SDS011;4236;54.504;9.588;2024-03-08T04:09:01;30.43;;;27.63;;
8397;SDS011;4236;54.504;9.588;2024-03-08T04:11:29;32.67;;;29.57;;
8397;SDS011;4236;54.504;9.588;2024-03-08T04:13:57;33.17;;;30.07;;
8397;SDS011;4236;54.504;9.588;2024-03-08T04:16:25;36.93;;;33.53;;
8397;SDS011;4236;54.504;9.588;2024-03-08T04:18:53;34.10;;;30.60;;
8397;SDS011;4236;54.504;9.588;2024-03-08T04:21:21;35.33;;;31.40;;
8397;SDS011;4236;54.504;9.588;2024-03-08T04:23:50;34.90;;;31.70;;
8397;SDS011;4236;54.504;9.588;2024-03-08T04:26:18;35.87;;;32.63;;
8397;SDS011;4236;54.504;9.588;2024-03-08T04:28:45;41.07;;;36.90;;
8397;SDS011;4236;54.504;9.588;2024-03-08T04:31:13;38.20;;;34.50;;
8397;SDS011;4236;54.504;9.588;2024-03-08T04:33:42;38.80;;;35.30;;
8397;SDS011;4236;54.504;9.588;2024-03-08T04:36:11;40.17;;;36.23;;
8397;SDS011;4236;54.504;9.588;2024-03-08T04:38:40;36.30;;;32.87;;
8397;SDS011;4236;54.504;9.588;2024-03-08T04:41:09;41.70;;;35.90;;
8397;SDS011;4236;54.504;9.588;2024-03-08T04:43:37;39.10;;;35.10;;
8397;SDS011;4236;54.504;9.588;2024-03-08T04:46:05;38.60;;;34.43;;
8397;SDS011;4236;54.504;9.588;2024-03-08T04:48:33;40.80;;;36.57;;
8397;SDS011;4236;54.504;9.588;2024-03-08T04:51:03;41.23;;;37.23;;
8397;SDS011;4236;54.504;9.588;2024-03-08T04:53:32;41.70;;;37.30;;
8397;SDS011;4236;54.504;9.588;2024-03-08T04:56:00;46.07;;;41.37;;
8397;SDS011;4236;54.504;9.588;2024-03-08T04:58:33;44.03;;;39.73;;
8397;SDS011;4236;54.504;9.588;2024-03-08T05:01:03;45.80;;;41.00;;
8397;SDS011;4236;54.504;9.588;2024-03-08T05:03:31;48.83;;;40.90;;
8397;SDS011;4236;54.504;9.588;2024-03-08T05:05:59;44.20;;;39.63;;
8397;SDS011;4236;54.504;9.588;2024-03-08T05:08:27;50.67;;;39.70;;
8397;SDS011;4236;54.504;9.588;2024-03-08T05:10:55;45.70;;;41.00;;
8397;SDS011;4236;54.504;9.588;2024-03-08T05:13:23;45.00;;;40.30;;
8397;SDS011;4236;54.504;9.588;2024-03-08T05:15:52;45.13;;;40.57;;
8397;SDS011;4236;54.504;9.588;2024-03-08T05:18:20;45.57;;;40.70;;
8397;SDS011;4236;54.504;9.588;2024-03-08T05:20:48;46.50;;;41.60;;
8397;SDS011;4236;54.504;9.588;2024-03-08T05:23:17;45.83;;;41.10;;
8397;SDS011;4236;54.504;9.588;2024-03-08T05:25:46;45.00;;;40.40;;
8397;SDS011;4236;54.504;9.588;2024-03-08T05:28:14;46.93;;;41.80;;
8397;SDS011;4236;54.504;9.588;2024-03-08T05:30:42;42.70;;;38.23;;
8397;SDS011;4236;54.504;9.588;2024-03-08T05:33:11;43.00;;;38.50;;
8397;SDS011;4236;54.504;9.588;2024-03-08T05:35:40;44.10;;;39.33;;
8397;SDS011;4236;54.504;9.588;2024-03-08T05:38:08;43.90;;;39.27;;
8397;SDS011;4236;54.504;9.588;2024-03-08T05:40:36;47.77;;;40.47;;
8397;SDS011;4236;54.504;9.588;2024-03-08T05:43:04;45.77;;;40.57;;
8397;SDS011;4236;54.504;9.588;2024-03-08T05:45:31;46.37;;;40.03;;
8397;SDS011;4236;54.504;9.588;2024-03-08T05:48:00;46.90;;;41.87;;
8397;SDS011;4236;54.504;9.588;2024-03-08T05:50:30;56.70;;;45.27;;
8397;SDS011;4236;54.504;9.588;2024-03-08T05:52:57;47.20;;;42.10;;
8397;SDS011;4236;54.504;9.588;2024-03-08T05:55:25;47.27;;;42.17;;
8397;SDS011;4236;54.504;9.588;2024-03-08T05:57:53;47.67;;;42.43;;
8397;SDS011;4236;54.504;9.588;2024-03-08T06:00:21;50.23;;;42.60;;
8397;SDS011;4236;54.504;9.588;2024-03-08T06:02:50;48.93;;;43.90;;
8397;SDS011;4236;54.504;9.588;2024-03-08T06:05:18;60.10;;;43.70;;
8397;SDS011;4236;54.504;9.588;2024-03-08T06:07:48;50.93;;;43.77;;
8397;SDS011;4236;54.504;9.588;2024-03-08T06:10:15;46.27;;;41.57;;
8397;SDS011;4236;54.504;9.588;2024-03-08T06:12:44;45.83;;;40.80;;
8397;SDS011;4236;54.504;9.588;2024-03-08T06:15:11;48.30;;;43.60;;
8397;SDS011;4236;54.504;9.588;2024-03-08T06:17:41;45.27;;;40.67;;
8397;SDS011;4236;54.504;9.588;2024-03-08T06:20:10;45.87;;;41.07;;
8397;SDS011;4236;54.504;9.588;2024-03-08T06:22:39;43.20;;;39.00;;
8397;SDS011;4236;54.504;9.588;2024-03-08T06:25:09;44.60;;;39.70;;
8397;SDS011;4236;54.504;9.588;2024-03-08T06:27:40;45.90;;;39.07;;
8397;SDS011;4236;54.504;9.588;2024-03-08T06:30:09;42.80;;;38.30;;
8397;SDS011;4236;54.504;9.588;2024-03-08T06:32:38;41.77;;;37.40;;
8397;SDS011;4236;54.504;9.588;2024-03-08T06:35:07;42.67;;;38.07;;
8397;SDS011;4236;54.504;9.588;2024-03-08T06:37:36;39.37;;;35.60;;
8397;SDS011;4236;54.504;9.588;2024-03-08T06:40:05;37.70;;;34.07;;
8397;SDS011;4236;54.504;9.588;2024-03-08T06:42:37;38.00;;;34.87;;
8397;SDS011;4236;54.504;9.588;2024-03-08T06:45:05;40.30;;;36.20;;
8397;SDS011;4236;54.504;9.588;2024-03-08T06:47:35;37.57;;;33.87;;
8397;SDS011;4236;54.504;9.588;2024-03-08T06:50:04;36.10;;;32.47;;
8397;SDS011;4236;54.504;9.588;2024-03-08T06:52:32;35.90;;;32.30;;
8397;SDS011;4236;54.504;9.588;2024-03-08T06:55:00;36.53;;;32.87;;
8397;SDS011;4236;54.504;9.588;2024-03-08T06:57:31;36.93;;;33.43;;
8397;SDS011;4236;54.504;9.588;2024-03-08T07:00:00;35.40;;;32.20;;
8397;SDS011;4236;54.504;9.588;2024-03-08T07:02:29;35.13;;;32.00;;
8397;SDS011;4236;54.504;9.588;2024-03-08T07:04:58;36.63;;;32.90;;
8397;SDS011;4236;54.504;9.588;2024-03-08T07:07:27;33.73;;;30.83;;
8397;SDS011;4236;54.504;9.588;2024-03-08T07:09:56;35.43;;;31.63;;
8397;SDS011;4236;54.504;9.588;2024-03-08T07:12:24;36.17;;;32.60;;
8397;SDS011;4236;54.504;9.588;2024-03-08T07:14:52;36.23;;;33.13;;
8397;SDS011;4236;54.504;9.588;2024-03-08T07:17:22;36.73;;;33.43;;
8397;SDS011;4236;54.504;9.588;2024-03-08T07:19:50;34.77;;;31.37;;
8397;SDS011;4236;54.504;9.588;2024-03-08T07:22:20;35.70;;;32.67;;
8397;SDS011;4236;54.504;9.588;2024-03-08T07:24:49;34.07;;;31.00;;
8397;SDS011;4236;54.504;9.588;2024-03-08T07:27:31;34.00;;;30.80;;
8397;SDS011;4236;54.504;9.588;2024-03-08T07:30:00;35.17;;;32.03;;
8397;SDS011;4236;54.504;9.588;2024-03-08T07:32:33;36.60;;;32.37;;
8397;SDS011;4236;54.504;9.588;2024-03-08T07:35:01;37.63;;;34.13;;
8397;SDS011;4236;54.504;9.588;2024-03-08T07:37:30;36.40;;;33.07;;
8397;SDS011;4236;54.504;9.588;2024-03-08T07:39:58;35.33;;;32.10;;
8397;SDS011;4236;54.504;9.588;2024-03-08T07:42:26;35.90;;;32.57;;
8397;SDS011;4236;54.504;9.588;2024-03-08T07:44:55;36.53;;;33.50;;
8397;SDS011;4236;54.504;9.588;2024-03-08T07:47:23;42.37;;;35.03;;
8397;SDS011;4236;54.504;9.588;2024-03-08T07:49:54;36.00;;;32.80;;
8397;SDS011;4236;54.504;9.588;2024-03-08T07:52:22;36.37;;;33.10;;
8397;SDS011;4236;54.504;9.588;2024-03-08T07:54:50;36.93;;;33.53;;
8397;SDS011;4236;54.504;9.588;2024-03-08T07:57:17;34.53;;;30.93;;
8397;SDS011;4236;54.504;9.588;2024-03-08T07:59:46;35.80;;;32.57;;
8397;SDS011;4236;54.504;9.588;2024-03-08T08:02:14;37.53;;;34.17;;
8397;SDS011;4236;54.504;9.588;2024-03-08T08:04:43;37.03;;;33.20;;
8397;SDS011;4236;54.504;9.588;2024-03-08T08:07:12;36.20;;;32.60;;
8397;SDS011;4236;54.504;9.588;2024-03-08T08:09:41;37.73;;;34.23;;
8397;SDS011;4236;54.504;9.588;2024-03-08T08:12:09;36.10;;;33.10;;
8397;SDS011;4236;54.504;9.588;2024-03-08T08:14:38;39.00;;;35.37;;
8397;SDS011;4236;54.504;9.588;2024-03-08T08:17:07;37.70;;;34.30;;
8397;SDS011;4236;54.504;9.588;2024-03-08T08:19:35;36.03;;;32.57;;
8397;SDS011;4236;54.504;9.588;2024-03-08T08:22:04;38.03;;;34.40;;
8397;SDS011;4236;54.504;9.588;2024-03-08T08:24:36;36.70;;;32.97;;
8397;SDS011;4236;54.504;9.588;2024-03-08T08:27:04;37.73;;;33.63;;
8397;SDS011;4236;54.504;9.588;2024-03-08T08:29:33;37.57;;;34.27;;
8397;SDS011;4236;54.504;9.588;2024-03-08T08:32:01;37.70;;;34.40;;
8397;SDS011;4236;54.504;9.588;2024-03-08T08:34:30;39.63;;;35.83;;
8397;SDS011;4236;54.504;9.588;2024-03-08T08:36:57;40.10;;;36.50;;
8397;SDS011;4236;54.504;9.588;2024-03-08T08:39:25;39.73;;;35.87;;
8397;SDS011;4236;54.504;9.588;2024-03-08T08:41:55;39.60;;;35.83;;
8397;SDS011;4236;54.504;9.588;2024-03-08T08:44:24;39.50;;;35.70;;
8397;SDS011;4236;54.504;9.588;2024-03-08T08:46:52;38.13;;;34.40;;
8397;SDS011;4236;54.504;9.588;2024-03-08T08:49:28;42.57;;;35.87;;
8397;SDS011;4236;54.504;9.588;2024-03-08T08:51:57;39.20;;;35.40;;
8397;SDS011;4236;54.504;9.588;2024-03-08T08:54:37;37.90;;;34.13;;
8397;SDS011;4236;54.504;9.588;2024-03-08T08:57:06;36.83;;;33.53;;
8397;SDS011;4236;54.504;9.588;2024-03-08T08:59:34;37.20;;;33.73;;
8397;SDS011;4236;54.504;9.588;2024-03-08T09:02:02;36.40;;;33.20;;
8397;SDS011;4236;54.504;9.588;2024-03-08T09:04:31;40.30;;;36.00;;
8397;SDS011;4236;54.504;9.588;2024-03-08T09:06:59;38.83;;;35.27;;
8397;SDS011;4236;54.504;9.588;2024-03-08T09:09:28;36.00;;;32.37;;
8397;SDS011;4236;54.504;9.588;2024-03-08T09:11:56;34.20;;;31.30;;
8397;SDS011;4236;54.504;9.588;2024-03-08T09:14:25;35.03;;;31.93;;
8397;SDS011;4236;54.504;9.588;2024-03-08T09:16:53;37.40;;;33.77;;
8397;SDS011;4236;54.504;9.588;2024-03-08T09:19:21;37.50;;;34.07;;
8397;SDS011;4236;54.504;9.588;2024-03-08T09:21:51;36.07;;;32.67;;
8397;SDS011;4236;54.504;9.588;2024-03-08T09:24:19;33.87;;;30.97;;
8397;SDS011;4236;54.504;9.588;2024-03-08T09:26:46;35.27;;;31.77;;
8397;SDS011;4236;54.504;9.588;2024-03-08T09:29:14;34.10;;;31.37;;
8397;SDS011;4236;54.504;9.588;2024-03-08T09:31:43;35.27;;;31.63;;
8397;SDS011;4236;54.504;9.588;2024-03-08T09:34:12;35.40;;;32.10;;
8397;SDS011;4236;54.504;9.588;2024-03-08T09:36:48;33.80;;;31.00;;
8397;SDS011;4236;54.504;9.588;2024-03-08T09:39:17;31.07;;;28.47;;
8397;SDS011;4236;54.504;9.588;2024-03-08T09:41:48;33.10;;;30.40;;
8397;SDS011;4236;54.504;9.588;2024-03-08T09:44:16;33.80;;;30.87;;
8397;SDS011;4236;54.504;9.588;2024-03-08T09:46:45;33.50;;;30.40;;
8397;SDS011;4236;54.504;9.588;2024-03-08T09:49:14;31.27;;;28.80;;
8397;SDS011;4236;54.504;9.588;2024-03-08T09:51:43;34.03;;;30.60;;
8397;SDS011;4236;54.504;9.588;2024-03-08T09:54:12;32.30;;;29.60;;
8397;SDS011;4236;54.504;9.588;2024-03-08T09:56:48;31.83;;;28.97;;
8397;SDS011;4236;54.504;9.588;2024-03-08T09:59:17;36.73;;;30.93;;
8397;SDS011;4236;54.504;9.588;2024-03-08T10:02:13;31.57;;;28.47;;
8397;SDS011;4236;54.504;9.588;2024-03-08T10:04:43;33.23;;;29.93;;
8397;SDS011;4236;54.504;9.588;2024-03-08T10:07:13;28.90;;;26.47;;
8397;SDS011;4236;54.504;9.588;2024-03-08T10:09:42;34.40;;;30.90;;
8397;SDS011;4236;54.504;9.588;2024-03-08T10:12:15;30.47;;;27.63;;
8397;SDS011;4236;54.504;9.588;2024-03-08T10:14:43;31.43;;;28.50;;
8397;SDS011;4236;54.504;9.588;2024-03-08T10:17:12;32.17;;;29.10;;
8397;SDS011;4236;54.504;9.588;2024-03-08T10:19:46;32.67;;;29.87;;
8397;SDS011;4236;54.504;9.588;2024-03-08T10:22:17;31.40;;;28.80;;
8397;SDS011;4236;54.504;9.588;2024-03-08T10:24:45;32.80;;;29.90;;
8397;SDS011;4236;54.504;9.588;2024-03-08T10:27:14;33.60;;;30.40;;
8397;SDS011;4236;54.504;9.588;2024-03-08T10:29:46;35.53;;;32.33;;
8397;SDS011;4236;54.504;9.588;2024-03-08T10:32:16;35.20;;;32.10;;
8397;SDS011;4236;54.504;9.588;2024-03-08T10:34:43;34.00;;;30.67;;
8397;SDS011;4236;54.504;9.588;2024-03-08T10:39:45;33.37;;;29.90;;
8397;SDS011;4236;54.504;9.588;2024-03-08T10:42:25;36.50;;;32.90;;
8397;SDS011;4236;54.504;9.588;2024-03-08T10:44:58;36.67;;;33.17;;
8397;SDS011;4236;54.504;9.588;2024-03-08T10:47:34;34.87;;;31.70;;
8397;SDS011;4236;54.504;9.588;2024-03-08T10:50:09;37.90;;;34.07;;
8397;SDS011;4236;54.504;9.588;2024-03-08T10:52:39;34.40;;;31.33;;
8397;SDS011;4236;54.504;9.588;2024-03-08T10:55:07;36.27;;;32.80;;
8397;SDS011;4236;54.504;9.588;2024-03-08T10:57:39;34.90;;;31.70;;
8397;SDS011;4236;54.504;9.588;2024-03-08T11:00:08;35.17;;;31.73;;
8397;SDS011;4236;54.504;9.588;2024-03-08T11:02:39;35.20;;;31.60;;
8397;SDS011;4236;54.504;9.588;2024-03-08T11:05:13;36.17;;;32.60;;
8397;SDS011;4236;54.504;9.588;2024-03-08T11:07:58;32.23;;;29.20;;
8397;SDS011;4236;54.504;9.588;2024-03-08T11:10:26;36.03;;;32.63;;
8397;SDS011;4236;54.504;9.588;2024-03-08T11:12:54;35.90;;;32.30;;
8397;SDS011;4236;54.504;9.588;2024-03-08T11:15:22;35.63;;;31.93;;
8397;SDS011;4236;54.504;9.588;2024-03-08T11:17:53;35.67;;;31.87;;
8397;SDS011;4236;54.504;9.588;2024-03-08T11:20:26;37.83;;;34.03;;
8397;SDS011;4236;54.504;9.588;2024-03-08T11:22:55;37.30;;;33.67;;
8397;SDS011;4236;54.504;9.588;2024-03-08T11:25:31;35.73;;;32.33;;
8397;SDS011;4236;54.504;9.588;2024-03-08T11:28:08;36.70;;;32.90;;
8397;SDS011;4236;54.504;9.588;2024-03-08T11:30:43;35.13;;;31.63;;
8397;SDS011;4236;54.504;9.588;2024-03-08T11:33:14;37.33;;;33.50;;
8397;SDS011;4236;54.504;9.588;2024-03-08T11:35:43;34.43;;;30.93;;
8397;SDS011;4236;54.504;9.588;2024-03-08T11:38:12;37.47;;;33.67;;
8397;SDS011;4236;54.504;9.588;2024-03-08T11:40:43;41.17;;;36.57;;
8397;SDS011;4236;54.504;9.588;2024-03-08T11:43:16;37.73;;;33.90;;
8397;SDS011;4236;54.504;9.588;2024-03-08T11:45:44;35.80;;;32.33;;
8397;SDS011;4236;54.504;9.588;2024-03-08T11:48:12;40.53;;;34.10;;
8397;SDS011;4236;54.504;9.588;2024-03-08T11:50:40;36.90;;;33.40;;
8397;SDS011;4236;54.504;9.588;2024-03-08T11:53:09;38.30;;;34.40;;
8397;SDS011;4236;54.504;9.588;2024-03-08T11:55:39;38.47;;;34.37;;
8397;SDS011;4236;54.504;9.588;2024-03-08T11:58:08;39.23;;;35.33;;
8397;SDS011;4236;54.504;9.588;2024-03-08T12:00:39;37.70;;;34.00;;
8397;SDS011;4236;54.504;9.588;2024-03-08T12:03:07;38.43;;;34.20;;
8397;SDS011;4236;54.504;9.588;2024-03-08T12:05:37;35.33;;;32.00;;
8397;SDS011;4236;54.504;9.588;2024-03-08T12:08:06;39.77;;;35.53;;
8397;SDS011;4236;54.504;9.588;2024-03-08T12:10:39;38.67;;;34.60;;
8397;SDS011;4236;54.504;9.588;2024-03-08T12:13:07;36.70;;;33.00;;
8397;SDS011;4236;54.504;9.588;2024-03-08T12:15:39;37.27;;;33.47;;
8397;SDS011;4236;54.504;9.588;2024-03-08T12:18:10;37.63;;;33.80;;
8397;SDS011;4236;54.504;9.588;2024-03-08T12:20:39;38.50;;;34.70;;
8397;SDS011;4236;54.504;9.588;2024-03-08T12:23:14;37.90;;;34.00;;
8397;SDS011;4236;54.504;9.588;2024-03-08T12:25:43;35.63;;;31.93;;
8397;SDS011;4236;54.504;9.588;2024-03-08T12:28:11;39.50;;;35.30;;
8397;SDS011;4236;54.504;9.588;2024-03-08T12:30:47;37.47;;;33.47;;
8397;SDS011;4236;54.504;9.588;2024-03-08T12:33:17;37.43;;;33.83;;
8397;SDS011;4236;54.504;9.588;2024-03-08T12:35:50;39.23;;;35.17;;
8397;SDS011;4236;54.504;9.588;2024-03-08T12:38:23;38.00;;;34.20;;
8397;SDS011;4236;54.504;9.588;2024-03-08T12:40:55;40.13;;;36.20;;
8397;SDS011;4236;54.504;9.588;2024-03-08T12:43:23;37.20;;;33.53;;
8397;SDS011;4236;54.504;9.588;2024-03-08T12:45:51;36.40;;;32.93;;
8397;SDS011;4236;54.504;9.588;2024-03-08T12:48:21;34.57;;;31.43;;
8397;SDS011;4236;54.504;9.588;2024-03-08T12:50:49;39.13;;;35.13;;
8397;SDS011;4236;54.504;9.588;2024-03-08T12:53:18;39.20;;;35.10;;
8397;SDS011;4236;54.504;9.588;2024-03-08T12:55:47;40.00;;;36.00;;
8397;SDS011;4236;54.504;9.588;2024-03-08T12:58:15;39.87;;;36.13;;
8397;SDS011;4236;54.504;9.588;2024-03-08T13:00:44;37.77;;;33.83;;
8397;SDS011;4236;54.504;9.588;2024-03-08T13:03:11;37.93;;;34.00;;
8397;SDS011;4236;54.504;9.588;2024-03-08T13:05:39;38.00;;;34.00;;
8397;SDS011;4236;54.504;9.588;2024-03-08T13:08:09;38.63;;;34.70;;
8397;SDS011;4236;54.504;9.588;2024-03-08T13:10:39;41.10;;;36.80;;
8397;SDS011;4236;54.504;9.588;2024-03-08T13:13:11;35.83;;;32.37;;
8397;SDS011;4236;54.504;9.588;2024-03-08T13:15:43;37.73;;;33.80;;
8397;SDS011;4236;54.504;9.588;2024-03-08T13:18:11;36.57;;;32.97;;
8397;SDS011;4236;54.504;9.588;2024-03-08T13:20:39;35.93;;;32.17;;
8397;SDS011;4236;54.504;9.588;2024-03-08T13:23:13;34.33;;;31.03;;
8397;SDS011;4236;54.504;9.588;2024-03-08T13:25:41;37.97;;;34.07;;
8397;SDS011;4236;54.504;9.588;2024-03-08T13:28:09;35.23;;;31.73;;
8397;SDS011;4236;54.504;9.588;2024-03-08T13:30:38;35.77;;;31.90;;
8397;SDS011;4236;54.504;9.588;2024-03-08T13:33:07;36.73;;;33.07;;
8397;SDS011;4236;54.504;9.588;2024-03-08T13:35:36;36.00;;;32.53;;
8397;SDS011;4236;54.504;9.588;2024-03-08T13:38:04;38.00;;;33.90;;
8397;SDS011;4236;54.504;9.588;2024-03-08T13:40:35;36.70;;;33.03;;
8397;SDS011;4236;54.504;9.588;2024-03-08T13:43:03;36.57;;;33.27;;
8397;SDS011;4236;54.504;9.588;2024-03-08T13:45:32;39.10;;;35.20;;
8397;SDS011;4236;54.504;9.588;2024-03-08T13:48:01;36.33;;;32.53;;
8397;SDS011;4236;54.504;9.588;2024-03-08T13:50:31;35.20;;;32.00;;
8397;SDS011;4236;54.504;9.588;2024-03-08T13:52:59;34.17;;;30.87;;
8397;SDS011;4236;54.504;9.588;2024-03-08T13:55:27;36.97;;;33.00;;
8397;SDS011;4236;54.504;9.588;2024-03-08T13:57:55;34.93;;;30.77;;
8397;SDS011;4236;54.504;9.588;2024-03-08T14:00:24;34.50;;;30.97;;
8397;SDS011;4236;54.504;9.588;2024-03-08T14:02:53;34.33;;;30.90;;
8397;SDS011;4236;54.504;9.588;2024-03-08T14:05:22;35.60;;;32.17;;
8397;SDS011;4236;54.504;9.588;2024-03-08T14:07:50;35.10;;;31.57;;
8397;SDS011;4236;54.504;9.588;2024-03-08T14:10:21;34.03;;;30.90;;
8397;SDS011;4236;54.504;9.588;2024-03-08T14:12:50;34.00;;;30.77;;
8397;SDS011;4236;54.504;9.588;2024-03-08T14:15:18;36.03;;;32.37;;
8397;SDS011;4236;54.504;9.588;2024-03-08T14:17:51;35.33;;;31.83;;
8397;SDS011;4236;54.504;9.588;2024-03-08T14:20:20;34.83;;;31.40;;
8397;SDS011;4236;54.504;9.588;2024-03-08T14:22:53;35.87;;;32.30;;
8397;SDS011;4236;54.504;9.588;2024-03-08T14:25:22;36.77;;;32.77;;
8397;SDS011;4236;54.504;9.588;2024-03-08T14:27:51;35.00;;;31.50;;
8397;SDS011;4236;54.504;9.588;2024-03-08T14:30:20;34.83;;;31.10;;
8397;SDS011;4236;54.504;9.588;2024-03-08T14:33:01;35.30;;;31.80;;
8397;SDS011;4236;54.504;9.588;2024-03-08T14:35:29;38.50;;;33.47;;
8397;SDS011;4236;54.504;9.588;2024-03-08T14:37:58;35.30;;;32.00;;
8397;SDS011;4236;54.504;9.588;2024-03-08T14:40:26;37.00;;;33.50;;
8397;SDS011;4236;54.504;9.588;2024-03-08T14:42:56;37.73;;;34.00;;
8397;SDS011;4236;54.504;9.588;2024-03-08T14:45:24;36.57;;;33.17;;
8397;SDS011;4236;54.504;9.588;2024-03-08T14:47:52;38.20;;;33.97;;
8397;SDS011;4236;54.504;9.588;2024-03-08T14:50:22;36.00;;;32.30;;
8397;SDS011;4236;54.504;9.588;2024-03-08T14:52:51;38.00;;;33.90;;
8397;SDS011;4236;54.504;9.588;2024-03-08T14:55:21;37.33;;;33.60;;
8397;SDS011;4236;54.504;9.588;2024-03-08T14:57:49;37.47;;;33.37;;
8397;SDS011;4236;54.504;9.588;2024-03-08T15:00:18;33.80;;;30.73;;
8397;SDS011;4236;54.504;9.588;2024-03-08T15:02:53;36.03;;;32.50;;